createdAt,value
2022-11-16T00:01:33.277Z,62.57
2022-11-16T00:04:01.733Z,62.54
2022-11-16T00:06:29.624Z,62.32
2022-11-16T00:09:17.555Z,62.21
2022-11-16T00:11:44.948Z,62.24
2022-11-16T00:14:12.118Z,61.88
2022-11-16T00:16:39.228Z,62.30
2022-11-16T00:19:07.524Z,61.98
2022-11-16T00:21:34.739Z,62.20
2022-11-16T00:24:02.104Z,62.16
2022-11-16T00:26:29.424Z,62.10
2022-11-16T00:28:56.480Z,61.91
2022-11-16T00:31:24.181Z,62.60
2022-11-16T00:33:51.995Z,62.71
2022-11-16T00:36:19.363Z,62.14
2022-11-16T00:38:47.732Z,62.47
2022-11-16T00:41:14.696Z,62.11
2022-11-16T00:43:41.642Z,62.05
2022-11-16T00:46:09.641Z,61.99
2022-11-16T00:48:36.816Z,61.12
2022-11-16T00:51:04.666Z,61.37
2022-11-16T00:53:31.879Z,61.96
2022-11-16T00:55:58.762Z,61.64
2022-11-16T00:58:25.778Z,61.30
2022-11-16T01:01:07.689Z,62.14
2022-11-16T01:03:36.439Z,61.81
2022-11-16T01:06:08.658Z,61.42
2022-11-16T01:08:37.982Z,61.32
2022-11-16T01:11:24.731Z,61.70
2022-11-16T01:13:52.044Z,61.88
2022-11-16T01:16:21.630Z,61.48
2022-11-16T01:18:50.940Z,61.72
2022-11-16T01:21:18.662Z,62.29
2022-11-16T01:23:45.883Z,62.33
2022-11-16T01:26:12.891Z,62.21
2022-11-16T01:28:41.519Z,62.69
2022-11-16T01:31:10.484Z,62.56
2022-11-16T01:33:38.281Z,62.47
2022-11-16T01:36:16.681Z,62.10
2022-11-16T01:38:46.179Z,61.26
2022-11-16T01:41:21.078Z,61.42
2022-11-16T01:44:05.287Z,61.32
2022-11-16T01:46:40.700Z,61.33
2022-11-16T01:49:17.188Z,61.40
2022-11-16T01:51:48.925Z,62.12
2022-11-16T01:54:16.764Z,62.70
2022-11-16T01:56:55.096Z,62.52
2022-11-16T01:59:32.246Z,62.58
2022-11-16T02:02:00.728Z,62.53
2022-11-16T02:04:28.236Z,63.00
2022-11-16T02:06:59.231Z,62.86
2022-11-16T02:09:54.470Z,63.23
2022-11-16T02:12:55.809Z,63.49
2022-11-16T02:15:48.439Z,63.23
2022-11-16T02:18:27.578Z,63.13
2022-11-16T02:21:20.806Z,63.05
2022-11-16T02:24:02.964Z,62.74
2022-11-16T02:26:38.883Z,62.72
2022-11-16T02:29:05.711Z,62.66
2022-11-16T02:31:40.738Z,62.73
2022-11-16T02:34:11.697Z,62.58
2022-11-16T02:36:42.316Z,63.14
2022-11-16T02:39:15.408Z,62.93
2022-11-16T02:41:46.064Z,63.10
2022-11-16T02:44:19.782Z,62.76
2022-11-16T02:46:52.686Z,63.69
2022-11-16T02:49:23.286Z,64.09
2022-11-16T02:51:53.256Z,63.89
2022-11-16T02:54:22.567Z,63.10
2022-11-16T02:57:04.281Z,63.95
2022-11-16T02:59:43.715Z,64.07
2022-11-16T03:02:35.593Z,63.33
2022-11-16T03:05:09.951Z,63.91
2022-11-16T03:07:50.991Z,64.36
2022-11-16T03:10:38.952Z,64.35
2022-11-16T03:13:12.189Z,64.28
2022-11-16T03:15:42.171Z,64.15
2022-11-16T03:18:16.274Z,63.98
2022-11-16T03:20:44.393Z,64.24
2022-11-16T03:23:12.955Z,64.04
2022-11-16T03:25:50.836Z,64.56
2022-11-16T03:28:27.622Z,64.86
2022-11-16T03:31:14.840Z,64.62
2022-11-16T03:33:47.824Z,64.59
2022-11-16T03:36:23.721Z,64.96
2022-11-16T03:38:52.967Z,64.86
2022-11-16T03:41:24.046Z,64.46
2022-11-16T03:43:52.298Z,65.92
2022-11-16T03:46:19.460Z,65.84
2022-11-16T03:48:46.445Z,66.11
2022-11-16T03:51:21.650Z,64.65
2022-11-16T03:53:48.585Z,65.21
2022-11-16T03:56:15.531Z,65.15
2022-11-16T03:58:42.523Z,64.04
2022-11-16T04:01:09.605Z,64.47
2022-11-16T04:03:37.315Z,65.12
2022-11-16T04:06:22.851Z,65.08
2022-11-16T04:09:08.256Z,64.86
2022-11-16T04:11:56.294Z,64.68
2022-11-16T04:14:43.709Z,64.46
2022-11-16T04:17:35.015Z,64.70
2022-11-16T04:20:21.108Z,65.07
2022-11-16T04:23:11.901Z,65.13
2022-11-16T04:25:42.016Z,65.02
2022-11-16T04:28:18.205Z,64.89
2022-11-16T04:31:24.120Z,65.26
2022-11-16T04:34:20.949Z,65.15
2022-11-16T04:37:10.319Z,65.03
2022-11-16T04:39:38.991Z,65.84
2022-11-16T04:42:15.526Z,66.30
2022-11-16T04:45:03.191Z,66.11
2022-11-16T04:47:43.701Z,66.26
2022-11-16T04:50:11.484Z,66.53
2022-11-16T04:52:40.200Z,66.76
2022-11-16T04:55:10.698Z,66.10
2022-11-16T04:57:38.402Z,66.04
2022-11-16T05:00:07.305Z,65.92
2022-11-16T05:02:36.178Z,66.21
2022-11-16T05:05:03.362Z,65.96
2022-11-16T05:07:30.542Z,64.96
2022-11-16T05:10:07.288Z,64.79
2022-11-16T05:12:35.212Z,65.30
2022-11-16T05:15:06.389Z,65.92
2022-11-16T05:17:34.674Z,65.78
2022-11-16T05:20:21.917Z,66.31
2022-11-16T05:22:57.378Z,66.11
2022-11-16T05:25:30.308Z,65.92
2022-11-16T05:28:01.573Z,66.01
2022-11-16T05:30:29.965Z,65.38
2022-11-16T05:32:59.187Z,65.42
2022-11-16T05:35:28.170Z,65.95
2022-11-16T05:37:55.207Z,66.22
2022-11-16T05:40:22.787Z,66.21
2022-11-16T05:42:58.258Z,65.98
2022-11-16T05:45:26.607Z,66.22
2022-11-16T05:47:53.861Z,66.18
2022-11-16T05:50:21.116Z,66.45
2022-11-16T05:53:00.340Z,66.35
2022-11-16T05:55:30.609Z,66.35
2022-11-16T05:57:57.723Z,66.52
2022-11-16T06:00:24.877Z,66.66
2022-11-16T06:02:53.616Z,67.60
2022-11-16T06:05:28.499Z,67.73
2022-11-16T06:07:56.942Z,68.01
2022-11-16T06:10:24.042Z,68.07
2022-11-16T06:12:52.759Z,68.49
2022-11-16T06:15:19.801Z,68.57
2022-11-16T06:17:47.776Z,68.90
2022-11-16T06:20:15.955Z,68.94
2022-11-16T06:22:43.998Z,69.32
2022-11-16T06:25:11.688Z,69.50
2022-11-16T06:27:42.229Z,70.34
2022-11-16T06:30:10.977Z,70.08
2022-11-16T06:32:40.120Z,70.13
2022-11-16T06:35:08.593Z,70.36
2022-11-16T06:37:37.049Z,70.00
2022-11-16T06:40:04.285Z,70.08
2022-11-16T06:42:35.568Z,70.39
2022-11-16T06:45:02.639Z,70.67
2022-11-16T06:47:36.841Z,70.24
2022-11-16T06:50:04.948Z,70.28
2022-11-16T06:52:31.907Z,70.25
2022-11-16T06:54:58.921Z,70.92
2022-11-16T06:57:25.875Z,70.95
2022-11-16T06:59:52.818Z,71.46
2022-11-16T07:02:21.530Z,72.31
2022-11-16T07:04:48.987Z,71.98
2022-11-16T07:07:16.591Z,71.73
2022-11-16T07:09:45.183Z,71.88
2022-11-16T07:12:13.850Z,72.36
2022-11-16T07:14:41.177Z,72.16
2022-11-16T07:17:09.929Z,72.06
2022-11-16T07:19:37.545Z,71.51
2022-11-16T07:22:06.051Z,70.99
2022-11-16T07:24:33.583Z,71.43
2022-11-16T07:27:00.552Z,70.36
2022-11-16T07:29:31.815Z,70.51
2022-11-16T07:32:17.483Z,70.84
2022-11-16T07:35:19.617Z,69.73
2022-11-16T07:37:46.601Z,69.35
2022-11-16T07:40:15.333Z,70.10
2022-11-16T07:42:45.463Z,68.03
2022-11-16T07:45:23.484Z,68.59
2022-11-16T07:47:58.407Z,69.31
2022-11-16T07:50:51.576Z,69.41
2022-11-16T07:53:20.458Z,69.38
2022-11-16T07:55:54.589Z,69.43
2022-11-16T07:58:23.793Z,68.96
2022-11-16T08:00:51.616Z,68.80
2022-11-16T08:03:24.391Z,68.94
2022-11-16T08:05:58.376Z,68.98
2022-11-16T08:08:25.397Z,68.79
2022-11-16T08:10:52.380Z,68.24
2022-11-16T08:13:19.366Z,67.44
2022-11-16T08:15:46.545Z,67.31
2022-11-16T08:18:13.633Z,66.67
2022-11-16T08:20:40.701Z,66.57
2022-11-16T08:23:07.667Z,66.10
2022-11-16T08:25:35.897Z,64.72
2022-11-16T08:28:02.963Z,64.50
2022-11-16T08:30:31.845Z,64.01
2022-11-16T08:33:00.248Z,63.88
2022-11-16T08:35:27.226Z,63.44
2022-11-16T08:37:54.443Z,63.35
2022-11-16T08:40:21.408Z,63.00
2022-11-16T08:42:48.613Z,62.87
2022-11-16T08:45:15.619Z,62.36
2022-11-16T08:47:42.731Z,62.52
2022-11-16T08:52:56.511Z,62.65
2022-11-16T08:55:24.468Z,61.82
2022-11-16T08:57:51.852Z,61.48
2022-11-16T09:00:19.222Z,61.55
2022-11-16T09:02:46.147Z,60.98
2022-11-16T09:05:13.196Z,60.77
2022-11-16T09:07:40.905Z,60.22
2022-11-16T09:10:08.622Z,58.44
2022-11-16T09:15:21.310Z,59.14
2022-11-16T09:17:48.207Z,58.56
2022-11-16T09:20:15.490Z,58.16
2022-11-16T09:22:42.362Z,59.21
2022-11-16T09:25:10.332Z,58.37
2022-11-16T09:27:38.017Z,55.12
2022-11-16T09:30:05.626Z,56.82
2022-11-16T09:32:32.544Z,56.58
2022-11-16T09:34:59.419Z,54.85
2022-11-16T09:37:26.312Z,54.47
2022-11-16T09:42:52.687Z,55.15
2022-11-16T09:45:23.248Z,54.67
2022-11-16T09:47:56.403Z,54.70
2022-11-16T09:54:17.052Z,54.18
2022-11-16T09:56:46.418Z,54.43
2022-11-16T09:59:25.486Z,54.72
2022-11-16T10:02:02.287Z,54.69
2022-11-16T10:04:41.436Z,53.73
2022-11-16T10:07:15.480Z,52.21
2022-11-16T10:09:44.619Z,51.39
2022-11-16T10:12:29.970Z,47.12
2022-11-16T10:15:07.252Z,47.81
2022-11-16T10:18:12.551Z,46.65
2022-11-16T10:20:45.240Z,45.45
2022-11-16T10:23:37.099Z,43.04
2022-11-16T10:26:50.449Z,45.88
2022-11-16T10:29:33.205Z,48.39
2022-11-16T10:32:18.439Z,49.13
2022-11-16T10:34:54.072Z,47.85
2022-11-16T10:37:22.451Z,49.70
2022-11-16T10:39:53.236Z,47.74
2022-11-16T10:42:27.661Z,45.27
2022-11-16T10:45:07.083Z,47.01
2022-11-16T10:47:52.202Z,48.26
2022-11-16T10:50:37.841Z,47.50
2022-11-16T10:53:04.852Z,48.65
2022-11-16T10:55:31.770Z,45.11
2022-11-16T10:58:00.281Z,47.52
2022-11-16T11:00:56.561Z,48.94
2022-11-16T11:03:31.767Z,48.83
2022-11-16T11:05:58.873Z,48.71
2022-11-16T11:08:31.058Z,48.21
2022-11-16T11:11:24.828Z,48.66
2022-11-16T11:14:15.771Z,48.23
2022-11-16T11:16:42.705Z,48.92
2022-11-16T11:19:27.774Z,46.91
2022-11-16T11:21:59.913Z,42.59
2022-11-16T11:24:45.268Z,43.01
2022-11-16T11:27:12.583Z,42.26
2022-11-16T11:29:43.094Z,44.74
2022-11-16T11:32:23.848Z,42.16
2022-11-16T11:34:54.038Z,42.95
2022-11-16T11:37:30.728Z,44.10
2022-11-16T11:42:59.707Z,46.50
2022-11-16T11:46:07.979Z,47.39
2022-11-16T11:48:35.720Z,46.76
2022-11-16T11:51:22.455Z,44.82
2022-11-16T11:53:56.280Z,43.75
2022-11-16T11:56:24.474Z,43.27
2022-11-16T11:58:52.048Z,45.24
2022-11-16T12:01:25.225Z,41.44
2022-11-16T12:04:10.694Z,41.68
2022-11-16T12:07:13.279Z,42.90
2022-11-16T12:09:56.181Z,42.23
2022-11-16T12:12:34.986Z,42.17
2022-11-16T12:15:07.914Z,40.78
2022-11-16T12:18:00.855Z,40.76
2022-11-16T12:20:39.878Z,42.50
2022-11-16T12:23:15.765Z,43.42
2022-11-16T12:25:57.852Z,42.00
2022-11-16T12:28:51.008Z,43.06
2022-11-16T12:31:24.344Z,44.68
2022-11-16T12:34:11.487Z,43.76
2022-11-16T12:36:59.950Z,44.27
2022-11-16T12:39:40.631Z,45.29
2022-11-16T12:42:22.090Z,45.32
2022-11-16T12:44:54.967Z,44.93
2022-11-16T12:47:52.804Z,45.51
2022-11-16T12:50:41.185Z,45.67
2022-11-16T12:53:19.914Z,45.36
2022-11-16T12:56:14.779Z,44.29
2022-11-16T12:58:47.538Z,45.25
2022-11-16T13:01:30.238Z,45.05
2022-11-16T13:04:13.574Z,44.45
2022-11-16T13:06:47.015Z,44.84
2022-11-16T13:09:21.832Z,44.62
2022-11-16T13:11:58.290Z,45.02
2022-11-16T13:14:32.915Z,45.52
2022-11-16T13:17:02.704Z,46.53
2022-11-16T13:19:30.295Z,46.73
2022-11-16T13:22:09.835Z,47.37
2022-11-16T13:25:12.975Z,47.94
2022-11-16T13:27:53.697Z,48.69
2022-11-16T13:30:23.452Z,49.88
2022-11-16T13:33:23.384Z,49.95
2022-11-16T13:35:51.766Z,50.44
2022-11-16T13:38:52.629Z,50.13
2022-11-16T13:41:31.449Z,49.85
2022-11-16T13:43:58.892Z,50.62
2022-11-16T13:46:55.289Z,50.48
2022-11-16T13:49:31.985Z,51.33
2022-11-16T13:52:22.051Z,51.17
2022-11-16T13:54:55.689Z,51.68
2022-11-16T13:57:31.059Z,52.22
2022-11-16T14:00:00.925Z,51.94
2022-11-16T14:02:32.480Z,52.32
2022-11-16T14:05:02.256Z,52.71
2022-11-16T14:07:44.903Z,52.82
2022-11-16T14:10:32.475Z,52.85
2022-11-16T14:13:04.537Z,52.24
2022-11-16T14:15:38.817Z,51.98
2022-11-16T14:18:09.299Z,51.79
2022-11-16T14:20:54.810Z,52.51
2022-11-16T14:23:49.634Z,51.97
2022-11-16T14:26:22.631Z,51.76
2022-11-16T14:29:26.688Z,51.75
2022-11-16T14:32:03.184Z,51.47
2022-11-16T14:34:46.023Z,51.89
2022-11-16T14:37:21.680Z,51.67
2022-11-16T14:39:50.590Z,51.49
2022-11-16T14:42:18.948Z,51.83
2022-11-16T14:44:47.279Z,51.86
2022-11-16T14:47:28.810Z,51.93
2022-11-16T14:49:56.433Z,51.91
2022-11-16T14:52:40.507Z,52.84
2022-11-16T14:55:10.259Z,52.46
2022-11-16T14:57:37.182Z,52.16
2022-11-16T15:00:24.803Z,52.12
2022-11-16T15:03:02.094Z,52.51
2022-11-16T15:05:34.653Z,52.75
2022-11-16T15:08:15.114Z,53.01
2022-11-16T15:10:52.016Z,53.04
2022-11-16T15:13:22.907Z,52.92
2022-11-16T15:15:52.805Z,52.99
2022-11-16T15:18:23.274Z,52.54
2022-11-16T15:20:52.151Z,52.13
2022-11-16T15:23:20.453Z,52.59
2022-11-16T15:25:55.795Z,52.96
2022-11-16T15:28:26.211Z,52.11
2022-11-16T15:31:01.932Z,52.60
2022-11-16T15:33:32.554Z,53.08
2022-11-16T15:35:59.854Z,53.11
2022-11-16T15:38:29.410Z,53.67
2022-11-16T15:40:59.521Z,53.46
2022-11-16T15:43:49.743Z,53.70
2022-11-16T15:46:29.440Z,54.47
2022-11-16T15:48:57.235Z,54.68
2022-11-16T15:51:24.362Z,54.96
2022-11-16T15:53:53.981Z,54.94
2022-11-16T15:56:26.899Z,55.27
2022-11-16T15:59:09.554Z,55.71
2022-11-16T16:01:45.448Z,54.98
2022-11-16T16:04:17.425Z,55.41
2022-11-16T16:06:48.886Z,56.15
2022-11-16T16:09:25.111Z,55.92
2022-11-16T16:12:11.093Z,55.58
2022-11-16T16:14:38.635Z,55.67
2022-11-16T16:17:05.571Z,55.62
2022-11-16T16:19:55.551Z,55.76
2022-11-16T16:22:37.185Z,56.04
2022-11-16T16:25:06.296Z,55.85
2022-11-16T16:27:39.938Z,54.55
2022-11-16T16:30:08.705Z,55.26
2022-11-16T16:32:37.966Z,55.30
2022-11-16T16:35:07.612Z,55.22
2022-11-16T16:37:38.689Z,55.26
2022-11-16T16:40:06.267Z,55.18
2022-11-16T16:42:33.159Z,55.36
2022-11-16T16:45:00.635Z,54.90
2022-11-16T16:47:27.681Z,54.60
2022-11-16T16:49:54.685Z,54.27
2022-11-16T16:52:21.649Z,54.74
2022-11-16T16:54:48.528Z,55.55
2022-11-16T16:57:16.853Z,55.27
2022-11-16T16:59:48.673Z,55.41
2022-11-16T17:02:16.458Z,55.45
2022-11-16T17:04:44.176Z,55.63
2022-11-16T17:07:11.154Z,55.27
2022-11-16T17:09:38.268Z,54.35
2022-11-16T17:12:05.422Z,53.63
2022-11-16T17:14:32.380Z,54.55
2022-11-16T17:17:00.235Z,54.38
2022-11-16T17:19:28.549Z,54.15
2022-11-16T17:21:55.512Z,54.20
2022-11-16T17:24:22.527Z,54.50
2022-11-16T17:26:50.643Z,54.99
2022-11-16T17:29:17.647Z,55.29
2022-11-16T17:31:47.697Z,56.33
2022-11-16T17:34:14.713Z,57.46
2022-11-16T17:36:42.709Z,59.51
2022-11-16T17:39:09.653Z,59.49
2022-11-16T17:41:37.118Z,58.74
2022-11-16T17:44:04.777Z,58.52
2022-11-16T17:46:31.780Z,58.77
2022-11-16T17:48:58.825Z,58.21
2022-11-16T17:51:26.150Z,58.05
2022-11-16T17:53:53.362Z,57.60
2022-11-16T17:56:22.708Z,57.57
2022-11-16T17:58:52.714Z,57.93
2022-11-16T18:01:19.726Z,57.72
2022-11-16T18:03:46.943Z,57.87
2022-11-16T18:06:19.432Z,57.85
2022-11-16T18:08:47.125Z,57.96
2022-11-16T18:11:22.902Z,58.21
2022-11-16T18:13:56.024Z,59.08
2022-11-16T18:16:25.467Z,58.34
2022-11-16T18:18:57.953Z,58.58
2022-11-16T18:21:25.789Z,59.47
2022-11-16T18:23:53.078Z,59.05
2022-11-16T18:26:22.516Z,59.00
2022-11-16T18:28:51.128Z,59.18
2022-11-16T18:31:20.500Z,59.40
2022-11-16T18:33:49.330Z,59.78
2022-11-16T18:36:17.251Z,59.80
2022-11-16T18:38:44.258Z,60.54
2022-11-16T18:41:13.796Z,60.31
2022-11-16T18:43:42.514Z,59.88
2022-11-16T18:46:09.558Z,59.77
2022-11-16T18:48:36.510Z,60.05
2022-11-16T18:51:04.862Z,60.07
2022-11-16T18:53:33.062Z,60.16
2022-11-16T18:56:00.377Z,59.60
2022-11-16T19:01:17.102Z,59.21
2022-11-16T19:03:44.305Z,59.37
2022-11-16T19:06:12.299Z,59.22
2022-11-16T19:08:41.416Z,60.03
2022-11-16T19:11:11.749Z,60.15
2022-11-16T19:13:42.900Z,60.30
2022-11-16T19:16:12.014Z,60.58
2022-11-16T19:18:39.020Z,60.83
2022-11-16T19:21:24.465Z,60.94
2022-11-16T19:23:53.608Z,61.51
2022-11-16T19:26:23.697Z,61.52
2022-11-16T19:28:51.773Z,60.71
2022-11-16T19:31:21.441Z,61.37
2022-11-16T19:33:52.769Z,62.00
2022-11-16T19:36:20.017Z,62.05
2022-11-16T19:38:48.417Z,63.08
2022-11-16T19:41:16.772Z,63.61
2022-11-16T19:43:43.981Z,61.78
2022-11-16T19:46:13.372Z,62.53
2022-11-16T19:48:40.348Z,63.76
2022-11-16T19:51:16.211Z,63.18
2022-11-16T19:53:43.443Z,63.49
2022-11-16T19:56:12.559Z,63.65
2022-11-16T19:58:39.764Z,64.65
2022-11-16T20:01:10.383Z,64.16
2022-11-16T20:03:38.659Z,63.74
2022-11-16T20:06:17.444Z,63.40
2022-11-16T20:08:48.946Z,63.16
2022-11-16T20:11:26.434Z,62.92
2022-11-16T20:13:55.237Z,63.25
2022-11-16T20:16:30.691Z,63.09
2022-11-16T20:19:01.390Z,62.79
2022-11-16T20:21:35.630Z,62.60
2022-11-16T20:24:06.696Z,63.94
2022-11-16T20:26:35.565Z,63.19
2022-11-16T20:29:03.024Z,62.54
2022-11-16T20:31:31.611Z,62.92
2022-11-16T20:34:01.158Z,63.11
2022-11-16T20:36:30.262Z,62.74
2022-11-16T20:38:59.299Z,61.92
2022-11-16T20:41:30.957Z,62.77
2022-11-16T20:44:00.264Z,62.74
2022-11-16T20:46:30.253Z,63.83
2022-11-16T20:48:59.505Z,64.37
2022-11-16T20:51:27.824Z,64.17
2022-11-16T20:53:54.634Z,64.03
2022-11-16T20:56:21.924Z,63.97
2022-11-16T20:58:49.559Z,64.62
2022-11-16T21:01:19.752Z,65.00
2022-11-16T21:03:47.143Z,65.07
2022-11-16T21:06:15.324Z,64.64
2022-11-16T21:08:42.475Z,65.07
2022-11-16T21:11:14.519Z,64.57
2022-11-16T21:14:00.162Z,64.67
2022-11-16T21:16:27.114Z,65.99
2022-11-16T21:18:55.677Z,65.27
2022-11-16T21:21:22.798Z,65.25
2022-11-16T21:23:53.841Z,64.99
2022-11-16T21:26:26.640Z,64.68
2022-11-16T21:28:53.999Z,64.60
2022-11-16T21:31:25.673Z,64.15
2022-11-16T21:33:54.024Z,64.27
2022-11-16T21:36:23.752Z,64.49
2022-11-16T21:38:52.132Z,64.14
2022-11-16T21:41:20.791Z,65.36
2022-11-16T21:43:47.644Z,64.50
2022-11-16T21:46:16.578Z,64.06
2022-11-16T21:48:44.253Z,64.45
2022-11-16T21:51:13.638Z,64.37
2022-11-16T21:53:40.705Z,64.29
2022-11-16T21:56:11.569Z,65.02
2022-11-16T21:58:42.240Z,64.51
2022-11-16T22:01:11.403Z,64.47
2022-11-16T22:03:38.770Z,64.84
2022-11-16T22:06:25.883Z,65.26
2022-11-16T22:08:53.001Z,65.13
2022-11-16T22:11:22.398Z,64.90
2022-11-16T22:13:50.194Z,65.09
2022-11-16T22:16:18.925Z,64.96
2022-11-16T22:18:45.799Z,65.52
2022-11-16T22:21:12.827Z,65.93
2022-11-16T22:23:40.332Z,65.94
2022-11-16T22:26:10.468Z,65.67
2022-11-16T22:28:38.006Z,66.13
2022-11-16T22:31:17.638Z,66.37
2022-11-16T22:33:44.431Z,66.38
2022-11-16T22:36:11.964Z,66.81
2022-11-16T22:38:38.912Z,67.22
2022-11-16T22:41:05.962Z,67.42
2022-11-16T22:43:33.415Z,67.66
2022-11-16T22:46:02.538Z,67.88
2022-11-16T22:48:40.233Z,68.05
2022-11-16T22:51:12.290Z,67.63
2022-11-16T22:53:39.276Z,68.02
2022-11-16T22:56:08.249Z,67.79
2022-11-16T22:58:36.372Z,67.46
2022-11-16T23:01:04.329Z,67.53
2022-11-16T23:03:31.747Z,67.78
2022-11-16T23:05:59.732Z,68.01
2022-11-16T23:08:27.307Z,68.19
2022-11-16T23:11:23.051Z,67.69
2022-11-16T23:14:09.079Z,68.07
2022-11-16T23:16:36.820Z,67.50
2022-11-16T23:19:03.949Z,67.21
2022-11-16T23:21:49.394Z,67.85
2022-11-16T23:24:35.946Z,67.21
2022-11-16T23:27:22.580Z,67.26
2022-11-16T23:29:49.848Z,66.98
2022-11-16T23:32:16.746Z,67.33
2022-11-16T23:34:43.565Z,67.13
2022-11-16T23:37:10.486Z,67.82
2022-11-16T23:39:37.364Z,67.51
2022-11-16T23:42:23.062Z,67.52
2022-11-16T23:44:49.993Z,67.72
2022-11-16T23:47:16.907Z,67.48
2022-11-16T23:49:43.788Z,67.31
2022-11-16T23:52:12.181Z,67.61
2022-11-16T23:54:39.328Z,68.15
2022-11-16T23:57:06.553Z,67.75
2022-11-16T23:59:33.506Z,67.26
